createdAt,value
2022-07-27T04:00:27.894Z,62.97
2022-07-27T04:01:27.891Z,62.60
2022-07-27T04:02:27.908Z,62.90
2022-07-27T04:03:27.823Z,62.77
2022-07-27T04:04:27.813Z,63.00
2022-07-27T04:05:29.616Z,62.90
2022-07-27T04:06:27.792Z,63.10
2022-07-27T04:07:27.789Z,62.50
2022-07-27T04:08:27.771Z,63.31
2022-07-27T04:09:27.754Z,63.70
2022-07-27T04:10:27.767Z,64.11
2022-07-27T04:11:32.789Z,62.80
2022-07-27T04:12:27.737Z,62.50
2022-07-27T04:13:27.709Z,62.30
2022-07-27T04:14:27.699Z,63.23
2022-07-27T04:15:27.686Z,63.64
2022-07-27T04:16:29.086Z,63.00
2022-07-27T04:17:55.526Z,63.40
2022-07-27T04:18:28.651Z,63.73
2022-07-27T04:19:27.640Z,63.20
2022-07-27T04:20:27.630Z,63.31
2022-07-27T04:21:27.762Z,63.43
2022-07-27T04:22:33.638Z,64.14
2022-07-27T04:23:27.594Z,64.04
2022-07-27T04:24:27.586Z,63.93
2022-07-27T04:25:27.573Z,63.64
2022-07-27T04:26:27.564Z,64.34
2022-07-27T04:27:27.560Z,63.84
2022-07-27T04:28:27.542Z,64.34
2022-07-27T04:29:27.538Z,64.37
2022-07-27T04:30:27.572Z,64.17
2022-07-27T04:31:27.506Z,64.17
2022-07-27T04:32:27.506Z,64.14
2022-07-27T04:33:32.506Z,64.27
2022-07-27T04:34:27.471Z,64.14
2022-07-27T04:35:27.460Z,64.04
2022-07-27T04:36:27.453Z,63.93
2022-07-27T04:37:27.451Z,63.73
2022-07-27T04:38:27.429Z,64.34
2022-07-27T04:39:27.415Z,64.43
2022-07-27T04:40:27.414Z,64.04
2022-07-27T04:41:29.637Z,64.34
2022-07-27T04:42:27.396Z,64.31
2022-07-27T04:43:29.461Z,63.70
2022-07-27T04:44:32.389Z,63.00
2022-07-27T04:45:27.353Z,63.20
2022-07-27T04:46:27.422Z,63.57
2022-07-27T04:47:27.352Z,63.60
2022-07-27T04:48:27.315Z,62.27
2022-07-27T04:49:27.392Z,63.60
2022-07-27T04:50:27.297Z,63.70
2022-07-27T04:51:31.185Z,63.70
2022-07-27T04:52:28.282Z,63.70
2022-07-27T04:53:27.263Z,64.11
2022-07-27T04:54:27.256Z,64.21
2022-07-27T04:55:32.258Z,63.93
2022-07-27T04:56:27.299Z,64.94
2022-07-27T04:57:27.220Z,64.94
2022-07-27T04:58:27.201Z,64.74
2022-07-27T04:59:27.196Z,64.74
2022-07-27T05:00:27.182Z,64.54
2022-07-27T05:01:31.685Z,64.74
2022-07-27T05:02:28.173Z,65.04
2022-07-27T05:03:27.146Z,65.14
2022-07-27T05:04:27.202Z,65.04
2022-07-27T05:05:27.120Z,64.21
2022-07-27T05:06:32.133Z,64.11
2022-07-27T05:07:27.107Z,63.90
2022-07-27T05:08:27.089Z,65.04
2022-07-27T05:09:27.072Z,64.64
2022-07-27T05:10:27.068Z,65.24
2022-07-27T05:11:27.053Z,64.64
2022-07-27T05:12:27.053Z,64.74
2022-07-27T05:13:27.027Z,65.04
2022-07-27T05:14:27.021Z,64.91
2022-07-27T05:15:27.009Z,64.71
2022-07-27T05:16:29.031Z,64.31
2022-07-27T05:17:32.015Z,63.90
2022-07-27T05:18:26.992Z,63.70
2022-07-27T05:19:40.151Z,64.31
2022-07-27T05:20:27.950Z,63.87
2022-07-27T05:21:26.937Z,63.90
2022-07-27T05:22:26.941Z,63.90
2022-07-27T05:23:26.920Z,64.40
2022-07-27T05:24:26.905Z,64.40
2022-07-27T05:25:26.892Z,64.91
2022-07-27T05:26:26.883Z,65.51
2022-07-27T05:27:26.880Z,65.44
2022-07-27T05:28:31.884Z,66.24
2022-07-27T05:29:26.850Z,66.08
2022-07-27T05:30:26.838Z,65.77
2022-07-27T05:31:26.878Z,66.28
2022-07-27T05:32:26.902Z,66.17
2022-07-27T05:33:26.805Z,66.47
2022-07-27T05:34:26.792Z,67.18
2022-07-27T05:35:26.788Z,66.61
2022-07-27T05:36:26.775Z,66.41
2022-07-27T05:37:26.765Z,67.01
2022-07-27T05:38:26.763Z,66.71
2022-07-27T05:39:31.759Z,66.71
2022-07-27T05:40:26.727Z,67.01
2022-07-27T05:41:26.716Z,66.31
2022-07-27T05:42:26.718Z,66.38
2022-07-27T05:43:26.686Z,66.81
2022-07-27T05:44:26.676Z,67.08
2022-07-27T05:45:26.761Z,65.67
2022-07-27T05:46:31.070Z,65.84
2022-07-27T05:47:27.653Z,65.84
2022-07-27T05:48:26.640Z,66.44
2022-07-27T05:49:26.683Z,65.74
2022-07-27T05:50:31.631Z,66.44
2022-07-27T05:51:26.597Z,65.94
2022-07-27T05:52:26.597Z,65.74
2022-07-27T05:53:26.573Z,65.64
2022-07-27T05:54:26.564Z,65.74
2022-07-27T05:55:26.549Z,65.64
2022-07-27T05:56:26.541Z,65.54
2022-07-27T05:57:26.543Z,65.84
2022-07-27T05:58:26.528Z,65.74
2022-07-27T05:59:26.505Z,66.35
2022-07-27T06:00:26.498Z,66.44
2022-07-27T06:01:31.525Z,65.71
2022-07-27T06:02:26.498Z,65.74
2022-07-27T06:03:26.526Z,65.91
2022-07-27T06:04:26.451Z,66.24
2022-07-27T06:05:26.437Z,65.64
2022-07-27T06:06:26.428Z,65.81
2022-07-27T06:07:26.430Z,65.14
2022-07-27T06:08:26.405Z,65.94
2022-07-27T06:09:26.393Z,66.35
2022-07-27T06:10:26.381Z,66.05
2022-07-27T06:11:26.369Z,64.51
2022-07-27T06:12:31.398Z,65.41
2022-07-27T06:13:28.466Z,65.31
2022-07-27T06:14:26.339Z,65.44
2022-07-27T06:15:26.324Z,66.14
2022-07-27T06:16:26.378Z,65.44
2022-07-27T06:17:26.316Z,65.84
2022-07-27T06:18:26.309Z,66.28
2022-07-27T06:19:36.423Z,65.88
2022-07-27T06:20:27.539Z,66.17
2022-07-27T06:21:26.258Z,66.17
2022-07-27T06:22:26.249Z,66.14
2022-07-27T06:23:31.264Z,65.88
2022-07-27T06:24:26.223Z,65.57
2022-07-27T06:25:34.314Z,65.94
2022-07-27T06:26:27.198Z,66.14
2022-07-27T06:27:29.607Z,65.88
2022-07-27T06:28:26.196Z,65.64
2022-07-27T06:29:26.162Z,65.24
2022-07-27T06:30:26.152Z,65.74
2022-07-27T06:31:26.218Z,65.84
2022-07-27T06:32:26.130Z,65.14
2022-07-27T06:33:26.129Z,65.44
2022-07-27T06:34:31.134Z,66.35
2022-07-27T06:35:26.102Z,66.14
2022-07-27T06:36:26.088Z,66.14
2022-07-27T06:37:26.164Z,65.94
2022-07-27T06:38:26.063Z,66.24
2022-07-27T06:39:26.050Z,66.14
2022-07-27T06:40:29.577Z,66.05
2022-07-27T06:41:26.026Z,66.67
2022-07-27T06:42:26.026Z,67.05
2022-07-27T06:43:26.038Z,66.98
2022-07-27T06:44:25.992Z,66.85
2022-07-27T06:45:31.003Z,66.85
2022-07-27T06:46:26.010Z,66.14
2022-07-27T06:47:28.800Z,66.14
2022-07-27T06:48:25.947Z,66.35
2022-07-27T06:49:26.026Z,66.05
2022-07-27T06:50:26.019Z,66.05
2022-07-27T06:51:25.909Z,66.14
2022-07-27T06:52:25.914Z,65.94
2022-07-27T06:53:25.895Z,65.94
2022-07-27T06:54:25.879Z,66.05
2022-07-27T06:55:25.869Z,66.44
2022-07-27T06:56:30.877Z,66.14
2022-07-27T06:57:25.866Z,66.47
2022-07-27T06:58:25.856Z,66.75
2022-07-27T06:59:25.821Z,66.85
2022-07-27T07:00:26.952Z,66.47
2022-07-27T07:01:25.866Z,66.95
2022-07-27T07:02:25.801Z,66.95
2022-07-27T07:03:25.848Z,66.38
2022-07-27T07:04:25.793Z,66.75
2022-07-27T07:05:25.754Z,66.44
2022-07-27T07:06:25.741Z,66.14
2022-07-27T07:07:30.765Z,65.94
2022-07-27T07:08:25.722Z,66.44
2022-07-27T07:09:25.705Z,65.84
2022-07-27T07:10:25.790Z,66.14
2022-07-27T07:11:25.685Z,65.84
2022-07-27T07:12:25.727Z,65.64
2022-07-27T07:13:25.680Z,65.94
2022-07-27T07:14:25.658Z,66.44
2022-07-27T07:15:25.642Z,66.24
2022-07-27T07:16:25.692Z,66.11
2022-07-27T07:17:25.615Z,65.21
2022-07-27T07:18:30.643Z,65.61
2022-07-27T07:19:25.591Z,65.74
2022-07-27T07:20:25.587Z,65.61
2022-07-27T07:21:25.572Z,66.01
2022-07-27T07:22:25.560Z,65.28
2022-07-27T07:23:25.559Z,64.37
2022-07-27T07:24:25.538Z,64.75
2022-07-27T07:25:25.524Z,64.04
2022-07-27T07:26:25.513Z,64.04
2022-07-27T07:27:25.500Z,64.25
2022-07-27T07:28:25.519Z,63.54
2022-07-27T07:29:30.505Z,63.95
2022-07-27T07:30:25.468Z,62.94
2022-07-27T07:31:25.555Z,63.51
2022-07-27T07:32:28.875Z,63.11
2022-07-27T07:33:26.457Z,63.39
2022-07-27T07:34:25.421Z,62.78
2022-07-27T07:35:25.412Z,62.58
2022-07-27T07:36:25.398Z,62.68
2022-07-27T07:37:31.753Z,62.18
2022-07-27T07:38:26.385Z,61.91
2022-07-27T07:39:31.027Z,61.81
2022-07-27T07:40:46.760Z,61.21
2022-07-27T07:41:26.395Z,60.91
2022-07-27T07:42:25.331Z,61.71
2022-07-27T07:43:25.332Z,61.91
2022-07-27T07:44:25.308Z,62.51
2022-07-27T07:45:25.299Z,61.61
2022-07-27T07:46:25.329Z,61.91
2022-07-27T07:47:25.275Z,61.71
2022-07-27T07:48:25.285Z,60.78
2022-07-27T07:49:39.484Z,60.88
2022-07-27T07:50:26.270Z,60.68
2022-07-27T07:51:30.252Z,60.18
2022-07-27T07:52:25.219Z,59.88
2022-07-27T07:53:25.225Z,59.45
2022-07-27T07:54:25.195Z,58.65
2022-07-27T07:55:25.189Z,59.35
2022-07-27T07:56:25.178Z,59.55
2022-07-27T07:57:25.163Z,58.92
2022-07-27T07:58:25.163Z,58.92
2022-07-27T07:59:25.149Z,58.12
2022-07-27T08:00:25.128Z,58.32
2022-07-27T08:01:25.278Z,58.85
2022-07-27T08:02:30.158Z,58.15
2022-07-27T08:03:25.178Z,58.55
2022-07-27T08:04:25.091Z,58.45
2022-07-27T08:05:25.072Z,58.32
2022-07-27T08:06:25.065Z,57.24
2022-07-27T08:07:25.049Z,57.02
2022-07-27T08:08:25.120Z,57.24
2022-07-27T08:09:25.033Z,57.72
2022-07-27T08:10:25.042Z,57.59
2022-07-27T08:11:25.004Z,57.02
2022-07-27T08:12:24.998Z,57.92
2022-07-27T08:13:30.021Z,57.42
2022-07-27T08:14:24.994Z,57.02
2022-07-27T08:15:29.965Z,57.62
2022-07-27T08:16:26.048Z,58.02
2022-07-27T08:17:24.940Z,56.99
2022-07-27T08:18:24.926Z,56.82
2022-07-27T08:19:24.924Z,57.02
2022-07-27T08:20:24.904Z,57.12
2022-07-27T08:21:24.895Z,56.02
2022-07-27T08:22:24.878Z,56.32
2022-07-27T08:23:24.876Z,56.59
2022-07-27T08:24:29.898Z,56.99
2022-07-27T08:25:24.853Z,56.49
2022-07-27T08:26:24.833Z,56.79
2022-07-27T08:27:24.825Z,56.59
2022-07-27T08:28:24.868Z,56.99
2022-07-27T08:29:24.817Z,56.59
2022-07-27T08:30:25.794Z,56.79
2022-07-27T08:31:26.614Z,56.67
2022-07-27T08:32:25.828Z,56.96
2022-07-27T08:33:24.766Z,55.87
2022-07-27T08:34:24.759Z,56.27
2022-07-27T08:35:29.759Z,55.66
2022-07-27T08:36:24.721Z,55.47
2022-07-27T08:37:24.748Z,55.36
2022-07-27T08:38:24.707Z,55.44
2022-07-27T08:40:20.039Z,55.04
2022-07-27T08:40:44.262Z,54.82
2022-07-27T08:41:25.665Z,54.52
2022-07-27T08:42:24.652Z,54.84
2022-07-27T08:43:25.557Z,54.11
2022-07-27T08:44:24.642Z,54.64
2022-07-27T08:45:24.623Z,54.61
2022-07-27T08:46:29.675Z,54.11
2022-07-27T08:47:24.597Z,53.92
2022-07-27T08:48:24.596Z,53.81
2022-07-27T08:49:41.358Z,55.11
2022-07-27T08:50:25.645Z,54.61
2022-07-27T08:51:24.553Z,54.02
2022-07-27T08:52:24.549Z,53.99
2022-07-27T08:53:24.563Z,54.39
2022-07-27T08:54:24.530Z,53.96
2022-07-27T08:55:24.508Z,52.67
2022-07-27T08:56:24.505Z,53.89
2022-07-27T08:57:29.510Z,53.69
2022-07-27T08:58:24.480Z,52.69
2022-07-27T08:59:24.481Z,53.96
2022-07-27T09:00:24.451Z,53.49
2022-07-27T09:01:24.520Z,53.79
2022-07-27T09:02:24.625Z,53.56
2022-07-27T09:03:24.482Z,52.97
2022-07-27T09:04:24.419Z,53.56
2022-07-27T09:05:24.400Z,52.07
2022-07-27T09:06:24.385Z,52.57
2022-07-27T09:07:24.381Z,52.76
2022-07-27T09:08:30.929Z,53.27
2022-07-27T09:09:24.368Z,52.97
2022-07-27T09:10:24.344Z,53.56
2022-07-27T09:11:24.337Z,54.29
2022-07-27T09:12:24.320Z,54.19
2022-07-27T09:13:24.319Z,54.52
2022-07-27T09:14:24.309Z,55.32
2022-07-27T09:15:24.292Z,54.82
2022-07-27T09:16:24.324Z,55.04
2022-07-27T09:18:25.329Z,55.51
2022-07-27T09:19:29.280Z,55.04
2022-07-27T09:20:24.231Z,54.91
2022-07-27T09:21:24.236Z,54.61
2022-07-27T09:22:24.223Z,54.79
2022-07-27T09:23:24.204Z,54.59
2022-07-27T09:24:45.402Z,53.79
2022-07-27T09:25:52.042Z,54.79
2022-07-27T09:26:34.091Z,55.02
2022-07-27T09:27:25.158Z,54.61
2022-07-27T09:28:24.147Z,54.61
2022-07-27T09:29:24.133Z,54.71
2022-07-27T09:30:29.158Z,54.52
2022-07-27T09:31:24.227Z,54.82
2022-07-27T09:32:24.099Z,54.52
2022-07-27T09:33:24.094Z,54.91
2022-07-27T09:34:24.081Z,54.61
2022-07-27T09:35:24.082Z,54.61
2022-07-27T09:36:24.058Z,54.71
2022-07-27T09:37:24.052Z,54.71
2022-07-27T09:38:24.036Z,54.79
2022-07-27T09:39:24.026Z,55.09
2022-07-27T09:40:25.582Z,54.09
2022-07-27T09:41:29.029Z,53.99
2022-07-27T09:43:05.445Z,53.99
2022-07-27T09:44:28.659Z,53.99
2022-07-27T09:44:31.678Z,54.09
2022-07-27T09:45:24.976Z,53.69
2022-07-27T09:46:25.028Z,53.59
2022-07-27T09:47:23.965Z,52.81
2022-07-27T09:48:23.938Z,51.00
2022-07-27T09:49:23.987Z,50.68
2022-07-27T09:50:23.914Z,50.80
2022-07-27T09:52:29.904Z,51.79
2022-07-27T09:53:42.181Z,52.39
2022-07-27T09:54:24.852Z,52.29
2022-07-27T09:55:23.866Z,52.00
2022-07-27T09:56:23.834Z,52.02
2022-07-27T09:57:23.823Z,51.82
2022-07-27T09:58:23.807Z,52.12
2022-07-27T09:59:23.802Z,52.02
2022-07-27T10:00:23.792Z,52.32
2022-07-27T10:01:23.868Z,52.42
2022-07-27T10:02:23.862Z,52.32
2022-07-27T10:03:28.780Z,52.55
2022-07-27T10:04:23.811Z,52.04
2022-07-27T10:05:23.808Z,51.54
2022-07-27T10:06:25.295Z,51.92
2022-07-27T10:07:23.709Z,52.02
2022-07-27T10:08:23.697Z,52.12
2022-07-27T10:09:23.688Z,51.92
2022-07-27T10:10:23.682Z,51.92
2022-07-27T10:11:23.680Z,51.92
2022-07-27T10:12:23.657Z,51.82
2022-07-27T10:13:23.643Z,51.72
2022-07-27T10:14:28.657Z,51.59
2022-07-27T10:15:23.624Z,51.79
2022-07-27T10:16:23.635Z,51.40
2022-07-27T10:17:23.598Z,51.00
2022-07-27T10:18:25.672Z,51.10
2022-07-27T10:19:23.575Z,50.80
2022-07-27T10:20:23.567Z,50.57
2022-07-27T10:21:23.569Z,51.07
2022-07-27T10:22:23.542Z,50.27
2022-07-27T10:23:23.531Z,49.55
2022-07-27T10:24:23.518Z,49.06
2022-07-27T10:25:32.423Z,49.33
2022-07-27T10:26:24.504Z,49.33
2022-07-27T10:27:23.486Z,49.73
2022-07-27T10:28:23.537Z,49.43
2022-07-27T10:29:23.467Z,49.63
2022-07-27T10:30:27.590Z,48.54
2022-07-27T10:31:23.588Z,48.94
2022-07-27T10:32:23.436Z,49.33
2022-07-27T10:33:23.419Z,48.83
2022-07-27T10:34:23.407Z,49.01
2022-07-27T10:35:23.397Z,47.82
2022-07-27T10:36:28.418Z,48.61
2022-07-27T10:37:23.376Z,48.41
2022-07-27T10:38:23.361Z,47.72
2022-07-27T10:39:23.352Z,48.02
2022-07-27T10:40:23.341Z,47.74
2022-07-27T10:41:23.344Z,48.24
2022-07-27T10:42:23.318Z,48.24
2022-07-27T10:43:23.320Z,47.94
2022-07-27T10:44:23.294Z,48.76
2022-07-27T10:45:23.285Z,48.26
2022-07-27T10:46:23.343Z,48.66
2022-07-27T10:47:28.286Z,48.54
2022-07-27T10:48:24.721Z,48.44
2022-07-27T10:49:23.314Z,47.92
2022-07-27T10:50:23.230Z,48.32
2022-07-27T10:51:23.230Z,47.82
2022-07-27T10:52:23.206Z,48.14
2022-07-27T10:53:23.195Z,48.04
2022-07-27T10:54:23.572Z,47.74
2022-07-27T10:55:23.174Z,47.64
2022-07-27T10:56:23.176Z,48.34
2022-07-27T10:57:23.160Z,47.34
2022-07-27T10:58:28.168Z,47.52
2022-07-27T10:59:23.131Z,47.14
2022-07-27T11:00:23.132Z,46.45
2022-07-27T11:01:23.216Z,47.44
2022-07-27T11:02:23.093Z,47.34
2022-07-27T11:03:23.101Z,48.04
2022-07-27T11:04:23.126Z,48.24
2022-07-27T11:05:58.702Z,48.04
2022-07-27T11:06:32.881Z,48.04
2022-07-27T11:07:26.810Z,48.04
2022-07-27T11:08:36.611Z,47.64
2022-07-27T11:10:24.067Z,47.86
2022-07-27T11:11:23.011Z,48.07
2022-07-27T11:12:23.009Z,48.46
2022-07-27T11:13:22.972Z,48.46
2022-07-27T11:14:30.956Z,48.16
2022-07-27T11:15:23.948Z,48.46
2022-07-27T11:16:24.748Z,48.56
2022-07-27T11:18:28.268Z,48.56
2022-07-27T11:19:22.983Z,48.36
2022-07-27T11:20:31.622Z,47.66
2022-07-27T11:21:26.416Z,47.77
2022-07-27T11:22:39.624Z,47.07
2022-07-27T11:23:50.419Z,47.37
2022-07-27T11:24:23.847Z,48.26
2022-07-27T11:25:22.841Z,48.08
2022-07-27T11:26:22.840Z,48.08
2022-07-27T11:27:25.333Z,48.08
2022-07-27T11:28:22.802Z,47.66
2022-07-27T11:29:22.796Z,47.99
2022-07-27T11:30:22.872Z,48.08
2022-07-27T11:31:52.966Z,48.28
2022-07-27T11:32:23.780Z,47.29
2022-07-27T11:33:22.749Z,47.49
2022-07-27T11:34:22.735Z,47.29
2022-07-27T11:35:22.731Z,47.07
2022-07-27T11:36:22.727Z,45.83
2022-07-27T11:37:22.709Z,46.72
2022-07-27T11:38:22.691Z,45.93
2022-07-27T11:39:54.409Z,46.03
2022-07-27T11:40:53.755Z,46.33
2022-07-27T11:41:47.662Z,45.36
2022-07-27T11:42:28.672Z,46.33
2022-07-27T11:43:22.642Z,44.84
2022-07-27T11:44:22.626Z,45.33
2022-07-27T11:45:22.616Z,45.23
2022-07-27T11:46:22.684Z,44.92
2022-07-27T11:47:22.595Z,44.52
2022-07-27T11:48:22.580Z,44.12
2022-07-27T11:49:22.941Z,44.84
2022-07-27T11:50:22.583Z,45.03
2022-07-27T11:51:22.561Z,44.26
2022-07-27T11:52:22.537Z,44.46
2022-07-27T11:53:27.550Z,44.16
2022-07-27T11:54:22.518Z,44.66
2022-07-27T11:55:22.501Z,45.06
2022-07-27T11:56:22.511Z,44.96
2022-07-27T11:57:22.483Z,44.54
2022-07-27T11:58:22.474Z,45.03
2022-07-27T11:59:22.464Z,44.92
2022-07-27T12:00:22.459Z,44.24
2022-07-27T12:01:22.444Z,43.92
2022-07-27T12:02:22.676Z,43.82
2022-07-27T12:03:22.412Z,43.42
2022-07-27T12:04:27.586Z,43.23
2022-07-27T12:05:22.415Z,42.83
2022-07-27T12:06:22.391Z,42.85
2022-07-27T12:07:22.374Z,42.35
2022-07-27T12:08:22.370Z,43.37
2022-07-27T12:09:22.349Z,43.96
2022-07-27T12:10:22.344Z,43.07
2022-07-27T12:11:29.356Z,43.15
2022-07-27T12:12:23.315Z,41.87
2022-07-27T12:13:22.301Z,40.62
2022-07-27T12:14:22.292Z,39.61
2022-07-27T12:16:23.345Z,38.86
2022-07-27T12:17:22.286Z,39.89
2022-07-27T12:18:22.248Z,39.99
2022-07-27T12:19:22.237Z,38.27
2022-07-27T12:20:22.229Z,37.46
2022-07-27T12:21:22.244Z,37.84
2022-07-27T12:22:22.207Z,37.80
2022-07-27T12:23:22.192Z,36.60
2022-07-27T12:24:22.182Z,35.46
2022-07-27T12:25:22.169Z,34.75
2022-07-27T12:26:22.221Z,34.74
2022-07-27T12:27:22.171Z,34.15
2022-07-27T12:28:27.233Z,34.64
2022-07-27T12:29:22.149Z,34.13
2022-07-27T12:30:22.326Z,34.33
2022-07-27T12:31:22.179Z,33.72
2022-07-27T12:32:22.099Z,33.25
2022-07-27T12:33:22.107Z,33.95
2022-07-27T12:34:22.076Z,34.18
2022-07-27T12:35:22.068Z,34.59
2022-07-27T12:36:22.076Z,35.02
2022-07-27T12:37:22.044Z,36.22
2022-07-27T12:38:22.040Z,35.75
2022-07-27T12:39:22.019Z,35.75
2022-07-27T12:40:22.013Z,35.63
2022-07-27T12:41:27.075Z,36.34
2022-07-27T12:42:22.018Z,35.15
2022-07-27T12:43:21.999Z,36.55
2022-07-27T12:44:21.970Z,36.77
2022-07-27T12:45:21.966Z,36.79
2022-07-27T12:46:22.083Z,37.62
2022-07-27T12:47:27.125Z,38.40
2022-07-27T12:48:22.937Z,37.43
2022-07-27T12:49:21.990Z,37.73
2022-07-27T12:50:21.952Z,38.82
2022-07-27T12:51:21.905Z,38.34
2022-07-27T12:52:21.890Z,38.94
2022-07-27T12:53:21.868Z,38.54
2022-07-27T12:54:26.879Z,38.74
2022-07-27T12:55:21.871Z,38.24
2022-07-27T12:56:27.742Z,39.45
2022-07-27T12:57:46.681Z,38.98
2022-07-27T12:58:22.815Z,39.07
2022-07-27T12:59:21.814Z,39.28
2022-07-27T13:00:21.795Z,38.38
2022-07-27T13:01:21.816Z,39.28
2022-07-27T13:02:21.869Z,39.19
2022-07-27T13:03:21.756Z,39.09
2022-07-27T13:04:21.746Z,39.39
2022-07-27T13:05:21.744Z,39.39
2022-07-27T13:06:21.744Z,39.98
2022-07-27T13:07:26.744Z,39.79
2022-07-27T13:08:21.725Z,39.39
2022-07-27T13:09:21.713Z,39.89
2022-07-27T13:10:21.677Z,39.39
2022-07-27T13:11:21.670Z,39.29
2022-07-27T13:12:21.691Z,38.88
2022-07-27T13:13:21.646Z,39.37
2022-07-27T13:14:21.648Z,39.69
2022-07-27T13:15:21.621Z,39.89
2022-07-27T13:16:21.665Z,39.19
2022-07-27T13:17:21.616Z,39.59
2022-07-27T13:18:23.892Z,38.79
2022-07-27T13:19:21.579Z,38.90
2022-07-27T13:20:26.590Z,39.98
2022-07-27T13:21:21.558Z,38.90
2022-07-27T13:22:21.571Z,39.49
2022-07-27T13:23:21.539Z,39.28
2022-07-27T13:24:21.524Z,38.88
2022-07-27T13:25:21.514Z,39.07
2022-07-27T13:26:21.586Z,39.59
2022-07-27T13:27:21.506Z,39.07
2022-07-27T13:28:21.484Z,39.28
2022-07-27T13:29:21.469Z,39.37
2022-07-27T13:30:21.460Z,39.07
2022-07-27T13:31:26.592Z,38.78
2022-07-27T13:32:21.496Z,39.07
2022-07-27T13:33:21.430Z,39.85
2022-07-27T13:34:21.422Z,39.37
2022-07-27T13:35:21.401Z,39.37
2022-07-27T13:36:21.406Z,38.38
2022-07-27T13:37:21.391Z,38.60
2022-07-27T13:38:21.369Z,39.09
2022-07-27T13:39:21.379Z,39.61
2022-07-27T13:40:21.346Z,39.51
2022-07-27T13:41:21.335Z,39.41
2022-07-27T13:42:26.362Z,39.11
2022-07-27T13:43:21.329Z,39.41
2022-07-27T13:44:49.190Z,38.81
2022-07-27T13:45:22.455Z,39.21
2022-07-27T13:46:21.329Z,40.01
2022-07-27T13:47:21.268Z,40.38
2022-07-27T13:48:21.269Z,39.09
2022-07-27T13:49:21.312Z,38.60
2022-07-27T13:50:21.242Z,39.39
2022-07-27T13:51:21.227Z,38.70
2022-07-27T13:52:21.225Z,39.09
2022-07-27T13:53:26.244Z,39.00
2022-07-27T13:54:21.192Z,39.49
2022-07-27T13:55:26.229Z,39.00
2022-07-27T13:56:23.411Z,39.39
2022-07-27T13:57:21.169Z,38.60
2022-07-27T13:58:21.146Z,39.07
2022-07-27T13:59:21.135Z,39.57
2022-07-27T14:00:21.127Z,39.37
2022-07-27T14:01:21.198Z,38.68
2022-07-27T14:02:22.934Z,38.66
2022-07-27T14:03:21.088Z,39.36
2022-07-27T14:04:26.102Z,38.85
2022-07-27T14:05:21.069Z,38.76
2022-07-27T14:06:21.058Z,38.64
2022-07-27T14:07:24.869Z,38.56
2022-07-27T14:08:22.048Z,38.05
2022-07-27T14:09:21.023Z,38.05
2022-07-27T14:10:21.032Z,38.74
2022-07-27T14:11:21.001Z,38.56
2022-07-27T14:12:21.006Z,38.64
2022-07-27T14:13:21.030Z,38.96
2022-07-27T14:14:24.347Z,38.74
2022-07-27T14:15:26.979Z,38.56
2022-07-27T14:16:20.974Z,38.05
2022-07-27T14:17:20.946Z,38.24
2022-07-27T14:18:20.940Z,38.64
2022-07-27T14:19:21.059Z,37.65
2022-07-27T14:20:20.903Z,38.05
2022-07-27T14:21:20.890Z,37.75
2022-07-27T14:22:20.897Z,37.55
2022-07-27T14:23:20.878Z,38.05
2022-07-27T14:24:20.860Z,37.75
2022-07-27T14:25:20.853Z,37.95
2022-07-27T14:26:25.863Z,37.55
2022-07-27T14:27:20.830Z,37.65
2022-07-27T14:28:21.248Z,38.15
2022-07-27T14:29:20.806Z,37.75
2022-07-27T14:30:21.235Z,38.44
2022-07-27T14:31:20.866Z,37.45
2022-07-27T14:32:20.783Z,38.26
2022-07-27T14:33:20.761Z,38.07
2022-07-27T14:34:20.753Z,38.46
2022-07-27T14:35:20.745Z,38.68
2022-07-27T14:36:20.730Z,38.18
2022-07-27T14:37:25.755Z,37.88
2022-07-27T14:38:28.255Z,38.60
2022-07-27T14:39:21.698Z,38.60
2022-07-27T14:40:20.692Z,39.09
2022-07-27T14:41:20.670Z,39.19
2022-07-27T14:42:20.681Z,39.29
2022-07-27T14:43:20.651Z,39.29
2022-07-27T14:44:20.641Z,38.50
2022-07-27T14:45:20.630Z,38.71
2022-07-27T14:46:20.709Z,38.71
2022-07-27T14:47:20.610Z,38.79
2022-07-27T14:48:48.500Z,38.90
2022-07-27T14:49:22.291Z,38.30
2022-07-27T14:50:20.573Z,38.30
2022-07-27T14:51:20.568Z,38.30
2022-07-27T14:52:20.554Z,38.60
2022-07-27T14:53:20.593Z,38.60
2022-07-27T14:54:20.528Z,38.30
2022-07-27T14:55:20.519Z,38.60
2022-07-27T14:56:20.508Z,38.70
2022-07-27T14:57:20.493Z,38.60
2022-07-27T14:58:20.499Z,39.31
2022-07-27T14:59:25.495Z,38.50
2022-07-27T15:00:20.462Z,38.32
2022-07-27T15:01:20.587Z,38.32
2022-07-27T15:02:20.526Z,39.01
2022-07-27T15:03:20.439Z,39.21
2022-07-27T15:04:20.418Z,38.71
2022-07-27T15:05:20.408Z,38.42
2022-07-27T15:06:20.398Z,38.62
2022-07-27T15:07:20.382Z,38.71
2022-07-27T15:08:20.543Z,38.62
2022-07-27T15:09:20.367Z,39.61
2022-07-27T15:10:25.387Z,38.92
2022-07-27T15:11:20.337Z,38.81
2022-07-27T15:12:20.329Z,38.71
2022-07-27T15:13:20.332Z,39.01
2022-07-27T15:14:20.305Z,38.52
2022-07-27T15:15:20.294Z,38.14
2022-07-27T15:16:20.368Z,38.83
2022-07-27T15:17:20.271Z,38.24
2022-07-27T15:18:20.329Z,38.83
2022-07-27T15:19:20.263Z,38.64
2022-07-27T15:20:20.243Z,38.65
2022-07-27T15:21:25.249Z,38.73
2022-07-27T15:22:20.247Z,39.03
2022-07-27T15:23:20.215Z,38.83
2022-07-27T15:24:20.197Z,38.34
2022-07-27T15:25:20.180Z,38.14
2022-07-27T15:26:20.174Z,37.74
2022-07-27T15:27:20.159Z,38.24
2022-07-27T15:28:20.160Z,38.54
2022-07-27T15:29:20.138Z,38.12
2022-07-27T15:30:20.126Z,38.92
2022-07-27T15:31:20.130Z,38.42
2022-07-27T15:32:25.125Z,38.52
2022-07-27T15:33:20.143Z,38.32
2022-07-27T15:34:20.081Z,37.62
2022-07-27T15:35:20.072Z,38.12
2022-07-27T15:36:32.458Z,38.32
2022-07-27T15:37:21.048Z,37.72
2022-07-27T15:38:20.048Z,37.82
2022-07-27T15:39:20.032Z,38.62
2022-07-27T15:40:20.320Z,38.79
2022-07-27T15:41:20.029Z,38.50
2022-07-27T15:42:19.992Z,38.70
2022-07-27T15:43:25.013Z,38.10
2022-07-27T15:44:19.979Z,38.30
2022-07-27T15:45:19.957Z,37.81
2022-07-27T15:46:27.394Z,38.30
2022-07-27T15:47:20.935Z,37.81
2022-07-27T15:48:19.925Z,38.12
2022-07-27T15:49:19.971Z,38.12
2022-07-27T15:50:19.907Z,38.02
2022-07-27T15:51:19.891Z,37.72
2022-07-27T15:52:19.889Z,38.12
2022-07-27T15:53:19.868Z,37.72
2022-07-27T15:54:24.891Z,37.92
2022-07-27T15:55:19.845Z,38.20
2022-07-27T15:56:19.835Z,37.90
2022-07-27T15:57:19.844Z,36.91
2022-07-27T15:58:19.815Z,37.72
2022-07-27T15:59:19.815Z,37.72
2022-07-27T16:00:19.793Z,38.42
2022-07-27T16:01:20.919Z,37.92
2022-07-27T16:02:24.741Z,37.90
2022-07-27T16:03:21.736Z,38.40
2022-07-27T16:04:19.953Z,38.30
2022-07-27T16:05:24.757Z,37.81
2022-07-27T16:06:20.173Z,38.70
2022-07-27T16:07:19.717Z,38.70
2022-07-27T16:08:19.706Z,38.00
2022-07-27T16:09:19.711Z,36.81
2022-07-27T16:10:19.695Z,36.71
2022-07-27T16:11:19.668Z,37.92
2022-07-27T16:12:19.667Z,38.12
2022-07-27T16:13:19.661Z,38.12
2022-07-27T16:14:19.651Z,38.02
2022-07-27T16:15:19.627Z,37.90
2022-07-27T16:16:24.784Z,37.92
2022-07-27T16:17:19.601Z,38.00
2022-07-27T16:18:19.611Z,36.81
2022-07-27T16:19:19.582Z,37.23
2022-07-27T16:20:19.568Z,37.72
2022-07-27T16:21:19.561Z,38.02
2022-07-27T16:22:19.547Z,37.82
2022-07-27T16:23:21.676Z,37.92
2022-07-27T16:24:19.538Z,37.94
2022-07-27T16:25:19.558Z,38.04
2022-07-27T16:26:19.498Z,38.24
2022-07-27T16:27:24.512Z,38.24
2022-07-27T16:28:19.475Z,38.14
2022-07-27T16:29:19.492Z,38.34
2022-07-27T16:30:20.887Z,38.73
2022-07-27T16:31:19.472Z,38.24
2022-07-27T16:32:19.433Z,37.94
2022-07-27T16:33:19.425Z,38.04
2022-07-27T16:34:19.422Z,37.94
2022-07-27T16:35:19.406Z,37.84
2022-07-27T16:36:19.389Z,37.32
2022-07-27T16:37:19.384Z,37.03
2022-07-27T16:38:24.396Z,38.22
2022-07-27T16:39:19.355Z,37.03
2022-07-27T16:40:19.344Z,37.32
2022-07-27T16:41:19.337Z,36.73
2022-07-27T16:42:19.322Z,37.03
2022-07-27T16:43:19.313Z,37.72
2022-07-27T16:44:19.308Z,37.92
2022-07-27T16:45:19.288Z,37.82
2022-07-27T16:46:19.293Z,38.42
2022-07-27T16:47:19.267Z,38.24
2022-07-27T16:48:19.255Z,37.74
2022-07-27T16:49:36.185Z,37.84
2022-07-27T16:50:20.232Z,38.24
2022-07-27T16:51:19.224Z,38.04
2022-07-27T16:52:19.211Z,37.84
2022-07-27T16:53:19.198Z,38.04
2022-07-27T16:54:19.200Z,38.22
2022-07-27T16:55:19.178Z,38.02
2022-07-27T16:56:19.169Z,37.72
2022-07-27T16:57:19.156Z,37.82